createdAt,value
2022-08-06T00:02:25.888Z,15.15
2022-08-06T00:05:00.597Z,15.12
2022-08-06T00:07:28.366Z,15.07
2022-08-06T00:10:01.672Z,15.08
2022-08-06T00:12:32.311Z,15.07
2022-08-06T00:15:00.178Z,15.02
2022-08-06T00:17:31.470Z,15.00
2022-08-06T00:20:01.276Z,14.92
2022-08-06T00:22:29.051Z,14.96
2022-08-06T00:24:56.656Z,15.02
2022-08-06T00:27:29.481Z,14.98
2022-08-06T00:30:14.867Z,14.85
2022-08-06T00:32:51.283Z,14.68
2022-08-06T00:35:21.802Z,14.45
2022-08-06T00:37:57.819Z,14.59
2022-08-06T00:40:30.887Z,14.59
2022-08-06T00:43:06.345Z,14.54
2022-08-06T00:45:38.350Z,14.48
2022-08-06T00:48:23.169Z,14.48
2022-08-06T00:51:00.712Z,14.35
2022-08-06T00:53:27.964Z,14.42
2022-08-06T00:56:08.910Z,14.42
2022-08-06T00:58:40.723Z,14.48
2022-08-06T01:01:16.728Z,14.44
2022-08-06T01:03:51.775Z,14.29
2022-08-06T01:06:55.599Z,14.33
2022-08-06T01:09:09.986Z,14.15
2022-08-06T01:11:38.396Z,14.30
2022-08-06T01:14:05.864Z,14.19
2022-08-06T01:16:49.090Z,14.24
2022-08-06T01:19:29.306Z,14.24
2022-08-06T01:22:31.575Z,14.25
2022-08-06T01:25:46.168Z,14.25
2022-08-06T01:28:28.383Z,14.24
2022-08-06T01:31:29.996Z,14.20
2022-08-06T01:34:15.617Z,14.29
2022-08-06T01:36:48.943Z,14.20
2022-08-06T01:39:21.514Z,14.31
2022-08-06T01:41:59.161Z,14.18
2022-08-06T01:44:40.073Z,14.28
2022-08-06T01:47:16.667Z,14.28
2022-08-06T01:50:01.725Z,14.23
2022-08-06T01:52:34.552Z,14.22
2022-08-06T01:55:02.823Z,14.24
2022-08-06T01:58:09.973Z,14.19
2022-08-06T02:00:29.697Z,14.20
2022-08-06T02:03:04.155Z,14.20
2022-08-06T02:05:33.474Z,14.22
2022-08-06T02:08:36.923Z,14.21
2022-08-06T02:12:01.042Z,14.19
2022-08-06T02:13:58.252Z,14.14
2022-08-06T02:16:29.244Z,14.08
2022-08-06T02:18:57.619Z,14.07
2022-08-06T02:21:32.894Z,14.05
2022-08-06T02:24:03.691Z,14.14
2022-08-06T02:26:32.954Z,14.10
2022-08-06T02:29:02.650Z,14.11
2022-08-06T02:31:29.449Z,14.05
2022-08-06T02:34:14.904Z,14.11
2022-08-06T02:36:50.248Z,13.97
2022-08-06T02:39:30.232Z,13.96
2022-08-06T02:42:18.776Z,13.80
2022-08-06T02:45:00.285Z,13.88
2022-08-06T02:48:01.167Z,14.00
2022-08-06T02:50:41.628Z,13.92
2022-08-06T02:53:24.265Z,13.97
2022-08-06T02:56:00.724Z,13.92
2022-08-06T02:58:45.450Z,13.84
2022-08-06T03:01:29.059Z,13.89
2022-08-06T03:04:00.110Z,14.03
2022-08-06T03:06:30.705Z,13.96
2022-08-06T03:08:58.926Z,13.94
2022-08-06T03:11:31.196Z,13.92
2022-08-06T03:14:31.777Z,13.82
2022-08-06T03:16:52.325Z,13.79
2022-08-06T03:19:57.519Z,13.68
2022-08-06T03:22:11.669Z,13.85
2022-08-06T03:24:47.009Z,13.83
2022-08-06T03:27:17.290Z,13.95
2022-08-06T03:29:49.761Z,13.99
2022-08-06T03:32:51.194Z,13.96
2022-08-06T03:35:49.087Z,13.93
2022-08-06T03:38:02.681Z,13.95
2022-08-06T03:40:31.425Z,13.81
2022-08-06T03:43:00.496Z,14.01
2022-08-06T03:45:45.291Z,14.09
2022-08-06T03:48:36.250Z,13.92
2022-08-06T03:51:11.027Z,14.01
2022-08-06T03:53:44.852Z,13.90
2022-08-06T03:56:28.773Z,14.10
2022-08-06T03:59:04.849Z,13.98
2022-08-06T04:01:43.165Z,14.19
2022-08-06T04:04:27.257Z,13.99
2022-08-06T04:07:00.508Z,14.17
2022-08-06T04:09:33.851Z,14.05
2022-08-06T04:12:58.885Z,14.16
2022-08-06T04:15:08.377Z,14.26
2022-08-06T04:17:40.524Z,14.10
2022-08-06T04:20:08.666Z,14.15
2022-08-06T04:22:59.676Z,14.31
2022-08-06T04:25:25.124Z,14.38
2022-08-06T04:27:54.330Z,14.31
2022-08-06T04:30:27.497Z,14.26
2022-08-06T04:33:01.194Z,14.36
2022-08-06T04:36:07.920Z,14.50
2022-08-06T04:38:28.083Z,14.46
2022-08-06T04:40:57.560Z,14.45
2022-08-06T04:43:37.990Z,14.16
2022-08-06T04:46:16.671Z,14.59
2022-08-06T04:48:47.925Z,14.55
2022-08-06T04:51:17.285Z,14.37
2022-08-06T04:54:06.074Z,14.66
2022-08-06T04:56:37.486Z,14.51
2022-08-06T04:59:09.441Z,14.28
2022-08-06T05:01:40.935Z,14.29
2022-08-06T05:04:23.747Z,14.50
2022-08-06T05:06:58.479Z,14.37
2022-08-06T05:09:42.837Z,14.55
2022-08-06T05:12:26.453Z,14.74
2022-08-06T05:15:09.010Z,14.66
2022-08-06T05:17:39.792Z,14.76
2022-08-06T05:20:26.308Z,14.82
2022-08-06T05:23:01.332Z,14.86
2022-08-06T05:25:35.949Z,14.92
2022-08-06T05:28:11.262Z,14.87
2022-08-06T05:30:49.844Z,14.91
2022-08-06T05:33:30.817Z,14.93
2022-08-06T05:36:02.608Z,14.89
2022-08-06T05:38:36.432Z,15.14
2022-08-06T05:41:11.886Z,15.14
2022-08-06T05:43:59.880Z,14.82
2022-08-06T05:46:31.121Z,14.92
2022-08-06T05:49:57.485Z,14.89
2022-08-06T05:52:26.407Z,15.08
2022-08-06T05:55:25.604Z,15.18
2022-08-06T05:58:08.827Z,15.32
2022-08-06T06:00:43.680Z,15.31
2022-08-06T06:03:24.578Z,15.46
2022-08-06T06:06:06.786Z,15.46
2022-08-06T06:08:57.800Z,15.30
2022-08-06T06:11:55.431Z,15.61
2022-08-06T06:14:37.903Z,15.38
2022-08-06T06:17:20.535Z,15.08
2022-08-06T06:20:08.660Z,15.29
2022-08-06T06:23:20.459Z,15.46
2022-08-06T06:26:32.902Z,15.34
2022-08-06T06:30:06.273Z,15.44
2022-08-06T06:32:30.520Z,15.30
2022-08-06T06:35:22.445Z,15.24
2022-08-06T06:38:00.438Z,15.45
2022-08-06T06:40:47.016Z,15.78
2022-08-06T06:43:49.261Z,15.82
2022-08-06T06:46:38.566Z,15.86
2022-08-06T06:50:00.198Z,16.03
2022-08-06T06:52:12.786Z,15.80
2022-08-06T06:54:59.620Z,15.88
2022-08-06T06:57:43.144Z,15.99
2022-08-06T07:00:45.689Z,16.17
2022-08-06T07:03:02.763Z,16.12
2022-08-06T07:06:02.958Z,15.98
2022-08-06T07:08:32.194Z,15.78
2022-08-06T07:11:07.282Z,16.13
2022-08-06T07:13:47.802Z,16.35
2022-08-06T07:16:35.268Z,16.31
2022-08-06T07:19:10.234Z,16.50
2022-08-06T07:21:42.216Z,16.48
2022-08-06T07:24:35.921Z,16.30
2022-08-06T07:27:00.908Z,16.45
2022-08-06T07:29:49.139Z,16.17
2022-08-06T07:32:31.462Z,16.40
2022-08-06T07:35:00.585Z,16.60
2022-08-06T07:37:37.737Z,16.69
2022-08-06T07:40:10.201Z,16.71
2022-08-06T07:42:39.181Z,16.75
2022-08-06T07:45:16.373Z,16.59
2022-08-06T07:47:54.217Z,16.23
2022-08-06T07:50:24.831Z,16.30
2022-08-06T07:52:56.430Z,16.60
2022-08-06T07:55:37.388Z,16.75
2022-08-06T07:58:08.548Z,17.03
2022-08-06T08:00:38.579Z,16.69
2022-08-06T08:03:55.868Z,16.41
2022-08-06T08:06:21.578Z,16.39
2022-08-06T08:08:57.101Z,15.99
2022-08-06T08:11:38.365Z,16.33
2022-08-06T08:14:15.482Z,16.50
2022-08-06T08:16:43.640Z,16.53
2022-08-06T08:19:35.037Z,16.95
2022-08-06T08:22:17.349Z,16.96
2022-08-06T08:24:53.962Z,17.09
2022-08-06T08:27:23.522Z,17.26
2022-08-06T08:29:56.869Z,17.25
2022-08-06T08:32:24.883Z,16.91
2022-08-06T08:34:53.011Z,17.08
2022-08-06T08:37:20.770Z,17.00
2022-08-06T08:39:47.837Z,16.95
2022-08-06T08:42:38.334Z,16.90
2022-08-06T08:45:13.078Z,16.82
2022-08-06T08:47:54.000Z,16.95
2022-08-06T08:50:28.209Z,16.76
2022-08-06T08:53:09.582Z,16.91
2022-08-06T08:57:10.526Z,16.95
2022-08-06T08:58:41.855Z,16.84
2022-08-06T09:01:51.345Z,17.24
2022-08-06T09:03:59.094Z,17.37
2022-08-06T09:06:30.788Z,17.19
2022-08-06T09:09:05.519Z,17.26
2022-08-06T09:12:04.288Z,17.44
2022-08-06T09:14:28.237Z,17.21
2022-08-06T09:17:00.862Z,17.49
2022-08-06T09:19:37.908Z,16.98
2022-08-06T09:22:08.821Z,17.10
2022-08-06T09:24:36.889Z,17.16
2022-08-06T09:27:45.125Z,17.27
2022-08-06T09:30:00.611Z,17.53
2022-08-06T09:32:57.057Z,17.80
2022-08-06T09:35:44.595Z,16.92
2022-08-06T09:38:17.319Z,17.39
2022-08-06T09:41:24.251Z,17.72
2022-08-06T09:44:03.849Z,18.06
2022-08-06T09:46:49.072Z,18.39
2022-08-06T09:49:48.059Z,17.38
2022-08-06T09:52:17.269Z,17.69
2022-08-06T09:54:46.387Z,18.15
2022-08-06T09:57:15.336Z,18.21
2022-08-06T09:59:50.213Z,18.16
2022-08-06T10:02:23.618Z,17.90
2022-08-06T10:05:19.536Z,18.15
2022-08-06T10:08:13.958Z,17.34
2022-08-06T10:10:52.357Z,17.82
2022-08-06T10:13:39.271Z,17.32
2022-08-06T10:16:20.609Z,17.41
2022-08-06T10:18:55.452Z,17.50
2022-08-06T10:21:41.769Z,18.62
2022-08-06T10:24:26.167Z,18.91
2022-08-06T10:27:15.156Z,18.46
2022-08-06T10:29:43.381Z,18.61
2022-08-06T10:32:15.847Z,18.61
2022-08-06T10:34:45.656Z,18.64
2022-08-06T10:37:49.608Z,18.66
2022-08-06T10:40:09.868Z,18.16
2022-08-06T10:42:40.379Z,18.25
2022-08-06T10:45:13.277Z,18.61
2022-08-06T10:48:58.967Z,18.58
2022-08-06T10:50:44.702Z,18.72
2022-08-06T10:53:20.621Z,18.73
2022-08-06T10:56:08.919Z,18.69
2022-08-06T10:58:37.839Z,18.84
2022-08-06T11:01:16.030Z,18.78
2022-08-06T11:04:26.354Z,18.72
2022-08-06T11:06:53.331Z,18.77
2022-08-06T11:09:59.854Z,18.89
2022-08-06T11:12:41.262Z,19.04
2022-08-06T11:15:17.973Z,19.34
2022-08-06T11:18:03.477Z,19.09
2022-08-06T11:20:37.399Z,18.84
2022-08-06T11:23:11.839Z,18.83
2022-08-06T11:25:58.933Z,18.85
2022-08-06T11:28:29.806Z,19.22
2022-08-06T11:31:03.057Z,18.90
2022-08-06T11:33:36.447Z,19.15
2022-08-06T11:36:10.779Z,19.14
2022-08-06T11:38:48.477Z,18.81
2022-08-06T11:41:55.398Z,19.10
2022-08-06T11:44:38.484Z,19.06
2022-08-06T11:47:14.106Z,19.02
2022-08-06T11:49:44.867Z,18.88
2022-08-06T11:52:34.305Z,18.18
2022-08-06T11:55:08.483Z,18.92
2022-08-06T11:57:42.047Z,19.23
2022-08-06T12:00:20.993Z,18.96
2022-08-06T12:02:56.672Z,19.50
2022-08-06T12:05:23.943Z,19.58
2022-08-06T12:08:14.514Z,19.84
2022-08-06T12:11:20.543Z,19.29
2022-08-06T12:13:57.546Z,19.60
2022-08-06T12:16:39.423Z,19.36
2022-08-06T12:19:12.982Z,19.44
2022-08-06T12:21:44.676Z,19.69
2022-08-06T12:24:15.929Z,19.99
2022-08-06T12:26:43.910Z,19.94
2022-08-06T12:29:11.202Z,19.64
2022-08-06T12:31:50.237Z,19.43
2022-08-06T12:34:27.881Z,19.32
2022-08-06T12:36:55.050Z,19.06
2022-08-06T12:39:45.677Z,19.15
2022-08-06T12:42:53.202Z,19.94
2022-08-06T12:46:04.359Z,19.96
2022-08-06T12:48:11.322Z,20.13
2022-08-06T12:50:43.403Z,20.39
2022-08-06T12:53:15.418Z,19.66
2022-08-06T12:55:55.771Z,19.47
2022-08-06T12:58:42.416Z,19.77
2022-08-06T13:02:08.654Z,19.94
2022-08-06T13:04:09.183Z,20.02
2022-08-06T13:06:37.762Z,20.12
2022-08-06T13:09:08.151Z,20.17
2022-08-06T13:11:41.628Z,20.01
2022-08-06T13:14:18.437Z,19.56
2022-08-06T13:16:57.221Z,19.72
2022-08-06T13:19:28.208Z,19.56
2022-08-06T13:22:03.005Z,19.39
2022-08-06T13:24:30.945Z,19.63
2022-08-06T13:27:03.009Z,19.81
2022-08-06T13:30:30.715Z,19.84
2022-08-06T13:32:33.339Z,20.04
2022-08-06T13:35:17.853Z,19.85
2022-08-06T13:37:57.544Z,19.96
2022-08-06T13:40:41.947Z,19.75
2022-08-06T13:43:39.819Z,19.91
2022-08-06T13:46:15.369Z,19.81
2022-08-06T13:48:49.710Z,19.78
2022-08-06T13:51:27.275Z,19.74
2022-08-06T13:53:57.460Z,19.65
2022-08-06T13:56:29.103Z,19.85
2022-08-06T13:58:58.880Z,20.00
2022-08-06T14:01:44.126Z,20.04
2022-08-06T14:04:14.210Z,19.71
2022-08-06T14:06:44.843Z,19.76
2022-08-06T14:09:19.392Z,19.80
2022-08-06T14:11:58.506Z,19.68
2022-08-06T14:14:27.808Z,19.63
2022-08-06T14:16:57.080Z,19.57
2022-08-06T14:20:14.740Z,19.43
2022-08-06T14:22:11.149Z,19.36
2022-08-06T14:24:39.378Z,19.65
2022-08-06T14:27:14.870Z,19.80
2022-08-06T14:30:27.718Z,19.46
2022-08-06T14:32:32.352Z,19.45
2022-08-06T14:35:03.644Z,19.46
2022-08-06T14:37:43.316Z,19.77
2022-08-06T14:40:23.726Z,19.99
2022-08-06T14:43:17.569Z,19.59
2022-08-06T14:45:44.210Z,19.74
2022-08-06T14:48:10.983Z,19.68
2022-08-06T14:50:42.077Z,19.26
2022-08-06T14:53:16.257Z,19.57
2022-08-06T14:56:07.016Z,19.64
2022-08-06T14:58:32.168Z,19.39
2022-08-06T15:00:59.197Z,19.30
2022-08-06T15:03:33.231Z,19.25
2022-08-06T15:06:06.198Z,19.78
2022-08-06T15:08:35.700Z,20.12
2022-08-06T15:11:05.860Z,19.48
2022-08-06T15:13:36.906Z,19.71
2022-08-06T15:16:11.027Z,20.16
2022-08-06T15:19:10.321Z,19.81
2022-08-06T15:21:51.071Z,19.89
2022-08-06T15:24:21.718Z,19.97
2022-08-06T15:26:51.824Z,19.43
2022-08-06T15:29:25.420Z,19.95
2022-08-06T15:31:52.309Z,20.38
2022-08-06T15:34:20.251Z,20.68
2022-08-06T15:37:02.938Z,20.45
2022-08-06T15:39:53.139Z,20.20
2022-08-06T15:42:23.830Z,19.58
2022-08-06T15:44:54.454Z,20.28
2022-08-06T15:47:32.035Z,20.37
2022-08-06T15:50:03.176Z,20.44
2022-08-06T15:52:33.595Z,20.15
2022-08-06T15:55:16.528Z,20.37
2022-08-06T15:58:06.837Z,20.49
2022-08-06T16:00:36.590Z,20.49
2022-08-06T16:03:06.613Z,20.46
2022-08-06T16:06:11.096Z,20.03
2022-08-06T16:08:22.989Z,20.32
2022-08-06T16:11:02.571Z,20.92
2022-08-06T16:13:36.295Z,21.19
2022-08-06T16:16:05.799Z,21.28
2022-08-06T16:18:34.118Z,21.37
2022-08-06T16:21:05.977Z,21.18
2022-08-06T16:23:55.708Z,21.83
2022-08-06T16:26:40.611Z,21.55
2022-08-06T16:29:08.761Z,21.30
2022-08-06T16:31:38.028Z,21.08
2022-08-06T16:34:14.458Z,20.99
2022-08-06T16:36:42.714Z,21.12
2022-08-06T16:39:12.495Z,21.14
2022-08-06T16:41:58.998Z,21.03
2022-08-06T16:44:34.805Z,21.33
2022-08-06T16:47:06.552Z,21.57
2022-08-06T16:49:59.348Z,21.21
2022-08-06T16:52:42.768Z,21.44
2022-08-06T16:55:09.222Z,20.65
2022-08-06T16:57:37.967Z,21.02
2022-08-06T17:00:09.278Z,20.82
2022-08-06T17:02:42.354Z,20.48
2022-08-06T17:05:21.635Z,20.19
2022-08-06T17:10:39.724Z,19.58
2022-08-06T17:13:09.154Z,19.40
2022-08-06T17:15:37.570Z,19.08
2022-08-06T17:18:04.961Z,19.24
2022-08-06T17:20:31.704Z,19.36
2022-08-06T17:25:50.948Z,19.84
2022-08-06T17:28:18.382Z,19.17
2022-08-06T17:30:45.044Z,19.13
2022-08-06T17:33:19.580Z,19.14
2022-08-06T17:36:30.691Z,19.26
2022-08-06T17:38:36.569Z,18.96
2022-08-06T17:41:11.687Z,19.01
2022-08-06T17:43:56.128Z,18.76
2022-08-06T17:46:26.511Z,18.90
2022-08-06T17:48:54.890Z,18.82
2022-08-06T17:51:23.074Z,18.74
2022-08-06T17:53:53.174Z,18.93
2022-08-06T17:56:29.775Z,19.56
2022-08-06T17:59:16.930Z,19.38
2022-08-06T18:01:49.958Z,19.21
2022-08-06T18:04:31.060Z,19.62
2022-08-06T18:07:11.693Z,19.83
2022-08-06T18:10:10.474Z,19.76
2022-08-06T18:12:31.720Z,20.00
2022-08-06T18:14:59.294Z,20.15
2022-08-06T18:17:59.581Z,19.90
2022-08-06T18:20:13.097Z,19.77
2022-08-06T18:22:43.641Z,19.79
2022-08-06T18:25:14.980Z,19.68
2022-08-06T18:27:55.597Z,19.22
2022-08-06T18:30:36.594Z,18.94
2022-08-06T18:33:12.778Z,18.71
2022-08-06T18:35:45.877Z,18.58
2022-08-06T18:38:32.225Z,18.31
2022-08-06T18:41:06.268Z,18.28
2022-08-06T18:43:49.763Z,18.16
2022-08-06T18:46:56.230Z,18.13
2022-08-06T18:49:26.879Z,18.10
2022-08-06T18:52:05.970Z,18.00
2022-08-06T18:54:56.969Z,17.87
2022-08-06T18:57:38.170Z,17.98
2022-08-06T19:00:18.405Z,17.97
2022-08-06T19:02:48.884Z,17.93
2022-08-06T19:05:17.109Z,17.85
2022-08-06T19:07:53.750Z,17.88
2022-08-06T19:10:24.345Z,17.83
2022-08-06T19:12:54.753Z,17.75
2022-08-06T19:15:24.388Z,17.69
2022-08-06T19:18:14.372Z,17.66
2022-08-06T19:20:38.127Z,17.60
2022-08-06T19:23:06.483Z,17.52
2022-08-06T19:25:52.090Z,17.50
2022-08-06T19:28:34.736Z,17.45
2022-08-06T19:31:06.992Z,17.38
2022-08-06T19:33:37.159Z,17.36
2022-08-06T19:36:30.828Z,17.36
2022-08-06T19:38:53.593Z,17.27
2022-08-06T19:42:00.210Z,17.25
2022-08-06T19:44:28.185Z,17.17
2022-08-06T19:46:56.358Z,17.09
2022-08-06T19:49:23.400Z,17.07
2022-08-06T19:52:04.648Z,17.02
2022-08-06T19:54:35.718Z,17.07
2022-08-06T19:57:06.390Z,17.09
2022-08-06T20:00:51.251Z,17.07
2022-08-06T20:02:28.717Z,16.99
2022-08-06T20:04:57.548Z,16.98
2022-08-06T20:07:34.388Z,16.93
2022-08-06T20:10:03.145Z,16.95
2022-08-06T20:12:38.267Z,16.96
2022-08-06T20:15:08.958Z,16.92
2022-08-06T20:17:45.944Z,16.92
2022-08-06T20:20:29.141Z,16.97
2022-08-06T20:23:08.421Z,17.00
2022-08-06T20:26:10.442Z,16.97
2022-08-06T20:29:08.113Z,16.95
2022-08-06T20:31:16.715Z,16.90
2022-08-06T20:33:58.986Z,16.86
2022-08-06T20:36:30.687Z,16.86
2022-08-06T20:38:58.243Z,16.85
2022-08-06T20:41:57.560Z,16.64
2022-08-06T20:44:14.305Z,16.77
2022-08-06T20:47:44.313Z,16.78
2022-08-06T20:50:03.839Z,16.78
2022-08-06T20:52:19.228Z,16.80
2022-08-06T20:54:51.791Z,16.67
2022-08-06T20:57:27.772Z,16.73
2022-08-06T20:59:58.211Z,16.70
2022-08-06T21:02:31.849Z,16.66
2022-08-06T21:05:14.082Z,16.54
2022-08-06T21:07:57.788Z,16.56
2022-08-06T21:10:31.181Z,16.48
2022-08-06T21:13:06.722Z,16.55
2022-08-06T21:15:54.483Z,16.53
2022-08-06T21:18:24.022Z,16.54
2022-08-06T21:20:53.146Z,16.50
2022-08-06T21:23:42.088Z,16.49
2022-08-06T21:26:08.309Z,16.52
2022-08-06T21:28:42.212Z,16.58
2022-08-06T21:31:10.421Z,16.52
2022-08-06T21:33:52.748Z,16.50
2022-08-06T21:36:26.905Z,16.50
2022-08-06T21:38:58.078Z,16.39
2022-08-06T21:41:58.385Z,16.30
2022-08-06T21:44:24.178Z,16.37
2022-08-06T21:46:58.612Z,16.41
2022-08-06T21:50:00.458Z,16.32
2022-08-06T21:52:27.518Z,16.21
2022-08-06T21:54:57.440Z,16.29
2022-08-06T21:57:25.327Z,16.31
2022-08-06T21:59:53.313Z,16.27
2022-08-06T22:02:28.041Z,16.24
2022-08-06T22:05:00.497Z,16.26
2022-08-06T22:08:04.611Z,16.21
2022-08-06T22:10:28.862Z,16.26
2022-08-06T22:13:12.260Z,16.22
2022-08-06T22:15:46.743Z,16.19
2022-08-06T22:18:16.795Z,16.21
2022-08-06T22:20:45.845Z,16.18
2022-08-06T22:23:15.936Z,16.13
2022-08-06T22:25:43.061Z,16.14
2022-08-06T22:28:11.727Z,16.12
2022-08-06T22:30:52.568Z,16.09
2022-08-06T22:33:23.647Z,16.13
2022-08-06T22:35:58.464Z,16.05
2022-08-06T22:38:39.008Z,16.12
2022-08-06T22:41:05.666Z,16.12
2022-08-06T22:43:51.880Z,16.15
2022-08-06T22:46:25.527Z,16.18
2022-08-06T22:48:52.984Z,16.21
2022-08-06T22:51:28.705Z,16.17
2022-08-06T22:54:29.561Z,16.11
2022-08-06T22:57:05.048Z,16.11
2022-08-06T23:00:06.959Z,16.16
2022-08-06T23:02:19.678Z,16.06
2022-08-06T23:04:46.764Z,16.07
2022-08-06T23:07:21.443Z,16.00
2022-08-06T23:09:53.660Z,15.93
2022-08-06T23:12:25.399Z,15.88
2022-08-06T23:14:59.034Z,15.83
2022-08-06T23:17:26.158Z,15.82
2022-08-06T23:20:11.809Z,15.80
2022-08-06T23:22:39.443Z,15.77
2022-08-06T23:26:02.068Z,15.78
2022-08-06T23:27:54.923Z,15.78
2022-08-06T23:30:22.120Z,15.78
2022-08-06T23:32:49.466Z,15.76
2022-08-06T23:35:35.830Z,15.74
2022-08-06T23:38:31.376Z,15.71
2022-08-06T23:40:51.846Z,15.70
2022-08-06T23:43:19.439Z,15.70
2022-08-06T23:45:47.201Z,15.70
2022-08-06T23:48:15.201Z,15.67
2022-08-06T23:50:52.895Z,15.65
2022-08-06T23:54:06.359Z,15.67
2022-08-06T23:56:13.120Z,15.70
2022-08-06T23:58:49.018Z,15.65
